createdAt,value
2022-09-16T00:00:46.998Z,18.90
2022-09-16T00:03:17.468Z,18.90
2022-09-16T00:05:48.783Z,18.80
2022-09-16T00:08:16.146Z,18.80
2022-09-16T00:10:44.017Z,18.80
2022-09-16T00:13:14.886Z,18.80
2022-09-16T00:15:51.317Z,18.80
2022-09-16T00:18:23.415Z,18.80
2022-09-16T00:20:51.850Z,18.80
2022-09-16T00:23:20.836Z,18.80
2022-09-16T00:25:54.898Z,18.80
2022-09-16T00:28:23.823Z,18.80
2022-09-16T00:30:53.262Z,18.70
2022-09-16T00:33:21.490Z,18.70
2022-09-16T00:35:48.466Z,18.70
2022-09-16T00:38:16.382Z,18.70
2022-09-16T00:40:49.331Z,18.70
2022-09-16T00:43:18.564Z,18.70
2022-09-16T00:45:54.640Z,18.70
2022-09-16T00:48:24.194Z,18.70
2022-09-16T00:50:56.524Z,18.70
2022-09-16T00:53:28.049Z,18.60
2022-09-16T00:55:58.706Z,18.60
2022-09-16T00:58:39.454Z,18.60
2022-09-16T01:01:09.280Z,18.60
2022-09-16T01:03:55.349Z,18.60
2022-09-16T01:06:24.905Z,18.60
2022-09-16T01:08:51.785Z,18.50
2022-09-16T01:11:18.705Z,18.50
2022-09-16T01:13:47.171Z,18.50
2022-09-16T01:16:40.697Z,18.50
2022-09-16T01:19:17.832Z,18.40
2022-09-16T01:22:13.476Z,18.40
2022-09-16T01:24:51.163Z,18.40
2022-09-16T01:27:32.968Z,18.40
2022-09-16T01:30:21.169Z,18.40
2022-09-16T01:33:04.920Z,18.40
2022-09-16T01:36:10.965Z,18.30
2022-09-16T01:38:40.899Z,18.30
2022-09-16T01:41:22.137Z,18.30
2022-09-16T01:43:54.934Z,18.20
2022-09-16T01:46:27.979Z,18.20
2022-09-16T01:49:17.002Z,18.20
2022-09-16T01:51:55.653Z,18.20
2022-09-16T01:54:31.808Z,18.20
2022-09-16T01:56:59.011Z,18.20
2022-09-16T01:59:44.641Z,18.20
2022-09-16T02:02:23.859Z,18.10
2022-09-16T02:04:55.582Z,18.10
2022-09-16T02:07:26.321Z,18.10
2022-09-16T02:09:58.196Z,18.10
2022-09-16T02:12:29.339Z,18.10
2022-09-16T02:15:02.666Z,18.10
2022-09-16T02:17:33.943Z,18.00
2022-09-16T02:20:07.930Z,18.00
2022-09-16T02:22:43.371Z,18.00
2022-09-16T02:25:11.568Z,17.90
2022-09-16T02:27:40.802Z,17.90
2022-09-16T02:30:10.982Z,17.90
2022-09-16T02:32:42.112Z,17.90
2022-09-16T02:35:14.178Z,17.80
2022-09-16T02:37:48.627Z,17.80
2022-09-16T02:40:43.452Z,17.80
2022-09-16T02:43:10.478Z,17.80
2022-09-16T02:46:29.411Z,17.80
2022-09-16T02:49:18.315Z,17.80
2022-09-16T02:52:02.861Z,17.80
2022-09-16T02:54:44.053Z,17.70
2022-09-16T02:57:11.355Z,17.70
2022-09-16T02:59:39.481Z,17.70
2022-09-16T03:02:07.602Z,17.70
2022-09-16T03:04:36.336Z,17.70
2022-09-16T03:07:05.662Z,17.70
2022-09-16T03:09:36.503Z,17.70
2022-09-16T03:12:15.671Z,17.70
2022-09-16T03:15:24.650Z,17.60
2022-09-16T03:18:10.445Z,17.60
2022-09-16T03:21:00.215Z,17.60
2022-09-16T03:23:49.247Z,17.60
2022-09-16T03:26:48.947Z,17.60
2022-09-16T03:31:55.446Z,17.50
2022-09-16T03:34:30.346Z,17.50
2022-09-16T03:37:13.676Z,17.50
2022-09-16T03:39:41.533Z,17.50
2022-09-16T03:42:11.305Z,17.50
2022-09-16T03:44:40.370Z,17.50
2022-09-16T03:47:08.686Z,17.50
2022-09-16T03:49:37.193Z,17.50
2022-09-16T03:52:08.535Z,17.50
2022-09-16T03:54:36.943Z,17.50
2022-09-16T03:57:04.970Z,17.50
2022-09-16T03:59:31.893Z,17.50
2022-09-16T04:01:58.658Z,17.50
2022-09-16T04:04:25.642Z,17.50
2022-09-16T04:06:55.896Z,17.40
2022-09-16T04:09:23.085Z,17.40
2022-09-16T04:11:50.102Z,17.40
2022-09-16T04:14:18.481Z,17.40
2022-09-16T04:16:46.507Z,17.40
2022-09-16T04:19:14.909Z,17.40
2022-09-16T04:21:42.467Z,17.40
2022-09-16T04:24:12.878Z,17.40
2022-09-16T04:26:40.793Z,17.40
2022-09-16T04:29:07.675Z,17.40
2022-09-16T04:31:34.565Z,17.40
2022-09-16T04:34:03.341Z,17.40
2022-09-16T04:36:30.193Z,17.30
2022-09-16T04:38:59.547Z,17.30
2022-09-16T04:41:27.320Z,17.30
2022-09-16T04:43:56.442Z,17.30
2022-09-16T04:46:25.172Z,17.40
2022-09-16T04:48:53.487Z,17.30
2022-09-16T04:51:24.562Z,17.30
2022-09-16T04:53:51.458Z,17.30
2022-09-16T04:56:21.765Z,17.30
2022-09-16T04:58:51.009Z,17.30
2022-09-16T05:01:20.924Z,17.30
2022-09-16T05:03:50.038Z,17.30
2022-09-16T05:06:23.399Z,17.20
2022-09-16T05:08:51.450Z,17.20
2022-09-16T05:11:25.627Z,17.20
2022-09-16T05:13:53.132Z,17.20
2022-09-16T05:16:24.428Z,17.10
2022-09-16T05:18:55.802Z,17.10
2022-09-16T05:21:26.851Z,17.10
2022-09-16T05:23:56.123Z,17.10
2022-09-16T05:26:25.993Z,17.10
2022-09-16T05:28:53.649Z,17.10
2022-09-16T05:31:26.731Z,17.00
2022-09-16T05:34:00.634Z,17.10
2022-09-16T05:36:31.099Z,17.00
2022-09-16T05:39:21.689Z,17.10
2022-09-16T05:41:46.271Z,17.10
2022-09-16T05:44:14.959Z,17.10
2022-09-16T05:46:43.968Z,17.10
2022-09-16T05:49:11.389Z,17.00
2022-09-16T05:51:39.829Z,17.10
2022-09-16T05:54:06.946Z,17.00
2022-09-16T05:56:33.997Z,17.00
2022-09-16T05:59:01.250Z,16.90
2022-09-16T06:01:32.747Z,17.00
2022-09-16T06:04:03.030Z,17.10
2022-09-16T06:06:38.230Z,17.00
2022-09-16T06:09:15.011Z,17.10
2022-09-16T06:11:45.858Z,17.10
2022-09-16T06:14:14.062Z,17.20
2022-09-16T06:16:42.782Z,17.20
2022-09-16T06:19:15.506Z,17.10
2022-09-16T06:21:45.801Z,17.10
2022-09-16T06:24:15.905Z,17.10
2022-09-16T06:26:45.319Z,17.10
2022-09-16T06:29:14.710Z,17.10
2022-09-16T06:31:43.121Z,17.10
2022-09-16T06:34:16.573Z,17.10
2022-09-16T06:36:45.422Z,17.10
2022-09-16T06:39:15.010Z,17.10
2022-09-16T06:41:41.930Z,17.10
2022-09-16T06:44:09.582Z,17.10
2022-09-16T06:46:37.250Z,17.10
2022-09-16T06:49:06.423Z,17.10
2022-09-16T06:51:34.830Z,17.10
2022-09-16T06:54:05.096Z,17.10
2022-09-16T06:56:32.865Z,17.20
2022-09-16T06:59:00.091Z,17.20
2022-09-16T07:01:30.853Z,17.30
2022-09-16T07:03:59.079Z,17.20
2022-09-16T07:06:52.239Z,17.30
2022-09-16T07:09:17.085Z,17.30
2022-09-16T07:11:45.151Z,17.40
2022-09-16T07:14:12.410Z,17.40
2022-09-16T07:16:39.209Z,17.50
2022-09-16T07:19:06.194Z,17.50
2022-09-16T07:21:33.081Z,17.50
2022-09-16T07:24:01.470Z,17.70
2022-09-16T07:26:31.129Z,17.90
2022-09-16T07:29:00.739Z,17.90
2022-09-16T07:31:30.464Z,17.90
2022-09-16T07:34:03.539Z,18.00
2022-09-16T07:36:43.171Z,18.20
2022-09-16T07:41:40.910Z,18.30
2022-09-16T07:44:11.696Z,18.40
2022-09-16T07:46:39.348Z,18.60
2022-09-16T07:49:08.997Z,18.80
2022-09-16T07:51:36.615Z,18.70
2022-09-16T07:54:11.507Z,18.70
2022-09-16T07:56:39.715Z,18.70
2022-09-16T07:59:14.299Z,18.60
2022-09-16T08:01:44.740Z,18.70
2022-09-16T08:04:12.607Z,18.60
2022-09-16T08:06:40.651Z,18.60
2022-09-16T08:09:27.398Z,18.60
2022-09-16T08:11:55.802Z,18.60
2022-09-16T08:14:23.411Z,18.50
2022-09-16T08:16:52.091Z,18.30
2022-09-16T08:19:23.203Z,18.40
2022-09-16T08:21:51.169Z,18.40
2022-09-16T08:24:19.083Z,18.60
2022-09-16T08:26:45.940Z,18.80
2022-09-16T08:29:14.288Z,19.10
2022-09-16T08:31:42.396Z,19.20
2022-09-16T08:34:09.186Z,19.20
2022-09-16T08:36:36.347Z,19.20
2022-09-16T08:39:03.654Z,19.00
2022-09-16T08:41:50.581Z,19.00
2022-09-16T08:44:35.469Z,18.90
2022-09-16T08:47:21.961Z,18.80
2022-09-16T08:49:51.165Z,18.80
2022-09-16T08:52:30.042Z,18.80
2022-09-16T08:55:01.096Z,18.70
2022-09-16T08:57:30.707Z,18.80
2022-09-16T09:00:19.713Z,18.70
2022-09-16T09:03:31.322Z,18.70
2022-09-16T09:06:00.667Z,18.70
2022-09-16T09:08:49.781Z,18.70
2022-09-16T09:11:31.685Z,18.80
2022-09-16T09:14:34.159Z,18.90
2022-09-16T09:17:37.250Z,19.00
2022-09-16T09:20:36.008Z,19.30
2022-09-16T09:23:18.475Z,19.40
2022-09-16T09:26:08.117Z,19.40
2022-09-16T09:28:44.231Z,19.40
2022-09-16T09:31:19.639Z,19.30
2022-09-16T09:34:29.287Z,19.40
2022-09-16T09:37:33.810Z,19.60
2022-09-16T09:40:36.905Z,19.80
2022-09-16T09:43:21.126Z,20.10
2022-09-16T09:45:59.277Z,20.20
2022-09-16T09:48:38.686Z,20.20
2022-09-16T09:51:13.167Z,20.20
2022-09-16T09:53:53.358Z,20.10
2022-09-16T09:56:45.225Z,20.20
2022-09-16T09:59:31.098Z,20.10
2022-09-16T10:02:00.801Z,20.10
2022-09-16T10:04:35.095Z,20.00
2022-09-16T10:10:00.973Z,20.20
2022-09-16T10:12:34.371Z,20.20
2022-09-16T10:15:01.405Z,20.00
2022-09-16T10:17:32.185Z,20.10
2022-09-16T10:20:02.220Z,20.30
2022-09-16T10:22:32.702Z,20.40
2022-09-16T10:25:02.045Z,20.50
2022-09-16T10:27:40.056Z,20.60
2022-09-16T10:30:17.670Z,20.40
2022-09-16T10:32:58.781Z,20.40
2022-09-16T10:35:27.930Z,20.40
2022-09-16T10:38:01.411Z,20.40
2022-09-16T10:40:28.635Z,20.30
2022-09-16T10:43:07.173Z,20.30
2022-09-16T10:45:45.011Z,20.10
2022-09-16T10:48:15.790Z,20.20
2022-09-16T10:51:00.852Z,20.20
2022-09-16T10:53:39.313Z,20.30
2022-09-16T10:56:18.600Z,20.40
2022-09-16T10:58:48.236Z,20.50
2022-09-16T11:01:42.526Z,20.50
2022-09-16T11:04:46.932Z,20.60
2022-09-16T11:07:20.610Z,20.60
2022-09-16T11:10:14.900Z,20.50
2022-09-16T11:13:05.707Z,20.40
2022-09-16T11:15:50.717Z,20.50
2022-09-16T11:18:39.054Z,20.40
2022-09-16T11:21:20.374Z,20.40
2022-09-16T11:24:14.411Z,20.30
2022-09-16T11:26:43.868Z,20.30
2022-09-16T11:29:10.528Z,20.30
2022-09-16T11:31:59.332Z,20.30
2022-09-16T11:34:33.068Z,20.30
2022-09-16T11:37:41.254Z,20.20
2022-09-16T11:40:17.491Z,20.10
2022-09-16T11:43:10.455Z,20.00
2022-09-16T11:45:54.172Z,19.90
2022-09-16T11:48:32.187Z,19.90
2022-09-16T11:51:18.686Z,19.90
2022-09-16T11:54:01.761Z,19.90
2022-09-16T11:56:48.186Z,20.00
2022-09-16T11:59:35.253Z,20.00
2022-09-16T12:02:19.672Z,20.00
2022-09-16T12:04:56.864Z,20.10
2022-09-16T12:07:38.749Z,20.10
2022-09-16T12:10:17.748Z,20.20
2022-09-16T12:12:54.715Z,20.30
2022-09-16T12:15:29.131Z,20.30
2022-09-16T12:18:04.406Z,20.40
2022-09-16T12:20:41.328Z,20.40
2022-09-16T12:23:29.793Z,20.50
2022-09-16T12:26:17.017Z,20.50
2022-09-16T12:29:10.599Z,20.50
2022-09-16T12:31:50.012Z,20.50
2022-09-16T12:34:43.174Z,20.40
2022-09-16T12:37:22.429Z,20.40
2022-09-16T12:39:50.506Z,20.30
2022-09-16T12:42:46.791Z,20.10
2022-09-16T12:45:45.356Z,20.00
2022-09-16T12:48:27.337Z,19.90
2022-09-16T12:51:24.255Z,19.80
2022-09-16T12:54:04.781Z,19.80
2022-09-16T12:56:37.502Z,19.80
2022-09-16T12:59:37.190Z,19.80
2022-09-16T13:02:27.254Z,19.60
2022-09-16T13:04:57.599Z,19.50
2022-09-16T13:07:43.171Z,19.30
2022-09-16T13:10:40.439Z,19.30
2022-09-16T13:13:08.520Z,19.10
2022-09-16T13:15:38.951Z,19.10
2022-09-16T13:18:09.058Z,19.10
2022-09-16T13:21:03.467Z,19.10
2022-09-16T13:23:34.947Z,19.00
2022-09-16T13:26:08.633Z,19.10
2022-09-16T13:28:47.129Z,19.10
2022-09-16T13:31:19.351Z,19.10
2022-09-16T13:34:01.991Z,19.10
2022-09-16T13:36:33.008Z,19.10
2022-09-16T13:39:11.945Z,19.00
2022-09-16T13:41:45.143Z,18.90
2022-09-16T13:44:34.297Z,18.70
2022-09-16T13:47:09.997Z,18.50
2022-09-16T13:52:34.769Z,18.60
2022-09-16T13:55:24.513Z,18.60
2022-09-16T13:58:29.976Z,18.60
2022-09-16T14:01:13.005Z,18.60
2022-09-16T14:03:47.554Z,18.60
2022-09-16T14:06:48.741Z,18.60
2022-09-16T14:09:27.139Z,18.60
2022-09-16T14:12:15.757Z,18.50
2022-09-16T14:14:47.553Z,18.50
2022-09-16T14:17:34.019Z,18.50
2022-09-16T14:20:02.406Z,18.40
2022-09-16T14:22:31.188Z,18.40
2022-09-16T14:25:06.189Z,18.40
2022-09-16T14:27:40.201Z,18.40
2022-09-16T14:30:18.893Z,18.30
2022-09-16T14:32:48.638Z,18.30
2022-09-16T14:35:24.947Z,18.40
2022-09-16T14:37:57.870Z,18.40
2022-09-16T14:40:27.664Z,18.30
2022-09-16T14:43:07.423Z,18.30
2022-09-16T14:45:38.159Z,18.30
2022-09-16T14:48:09.954Z,18.30
2022-09-16T14:50:40.120Z,18.20
2022-09-16T14:53:26.890Z,18.10
2022-09-16T14:56:00.639Z,18.10
2022-09-16T14:58:34.616Z,18.00
2022-09-16T15:01:12.446Z,18.00
2022-09-16T15:04:00.285Z,18.00
2022-09-16T15:07:03.980Z,18.00
2022-09-16T15:09:59.586Z,18.00
2022-09-16T15:12:31.677Z,17.90
2022-09-16T15:15:18.743Z,17.90
2022-09-16T15:17:58.481Z,17.90
2022-09-16T15:20:30.354Z,17.90
2022-09-16T15:22:57.188Z,17.80
2022-09-16T15:25:29.221Z,17.90
2022-09-16T15:28:17.237Z,17.80
2022-09-16T15:30:55.372Z,17.90
2022-09-16T15:33:36.065Z,17.80
2022-09-16T15:36:05.730Z,17.80
2022-09-16T15:38:32.533Z,17.90
2022-09-16T15:50:15.316Z,17.90
2022-09-16T15:53:13.041Z,17.90
2022-09-16T15:55:48.663Z,17.80
2022-09-16T15:58:34.073Z,17.80
2022-09-16T16:01:19.223Z,17.80
2022-09-16T16:03:46.098Z,17.80
2022-09-16T16:06:22.193Z,17.70
2022-09-16T16:08:52.684Z,17.60
2022-09-16T16:11:21.306Z,17.60
2022-09-16T16:13:55.715Z,17.60
2022-09-16T16:16:26.515Z,17.60
2022-09-16T16:18:53.242Z,17.50
2022-09-16T16:21:24.052Z,17.50
2022-09-16T16:23:51.911Z,17.40
2022-09-16T16:26:22.462Z,17.30
2022-09-16T16:28:52.002Z,17.20
2022-09-16T16:31:18.888Z,17.20
2022-09-16T16:33:47.670Z,17.10
2022-09-16T16:36:17.536Z,17.10
2022-09-16T16:38:46.289Z,17.10
2022-09-16T16:41:13.676Z,17.10
2022-09-16T16:43:40.935Z,17.10
2022-09-16T16:46:07.755Z,17.10
2022-09-16T16:48:37.196Z,17.10
2022-09-16T16:51:11.882Z,17.00
2022-09-16T16:53:39.685Z,17.10
2022-09-16T16:56:11.309Z,17.10
2022-09-16T16:58:41.420Z,17.10
2022-09-16T17:01:11.844Z,17.10
2022-09-16T17:03:39.877Z,17.10
2022-09-16T17:06:10.481Z,17.10
2022-09-16T17:08:37.484Z,17.10
2022-09-16T17:11:07.459Z,17.10
2022-09-16T17:13:41.440Z,17.10
2022-09-16T17:16:12.707Z,17.10
2022-09-16T17:18:42.357Z,17.10
2022-09-16T17:21:13.653Z,17.10
2022-09-16T17:23:43.578Z,17.10
2022-09-16T17:26:11.244Z,17.00
2022-09-16T17:28:39.493Z,17.00
2022-09-16T17:31:12.436Z,17.00
2022-09-16T17:33:39.293Z,17.00
2022-09-16T17:36:10.323Z,17.00
2022-09-16T17:38:38.514Z,17.00
2022-09-16T17:41:11.280Z,16.90
2022-09-16T17:43:38.676Z,16.90
2022-09-16T17:46:08.414Z,16.90
2022-09-16T17:48:37.530Z,16.80
2022-09-16T17:51:04.481Z,16.80
2022-09-16T17:53:31.485Z,16.80
2022-09-16T17:56:09.816Z,16.80
2022-09-16T17:58:39.408Z,16.70
2022-09-16T18:01:12.120Z,16.70
2022-09-16T18:03:40.715Z,16.70
2022-09-16T18:06:17.031Z,16.70
2022-09-16T18:08:45.047Z,16.60
2022-09-16T18:11:16.876Z,16.50
2022-09-16T18:13:45.379Z,16.50
2022-09-16T18:16:21.529Z,16.50
2022-09-16T18:18:52.969Z,16.50
2022-09-16T18:21:20.754Z,16.50
2022-09-16T18:23:50.992Z,16.50
2022-09-16T18:26:20.766Z,16.40
2022-09-16T18:29:18.894Z,16.50
2022-09-16T18:31:39.311Z,16.40
2022-09-16T18:34:06.810Z,16.40
2022-09-16T18:36:35.230Z,16.30
2022-09-16T18:39:02.023Z,16.30
2022-09-16T18:41:31.351Z,16.20
2022-09-16T18:44:01.578Z,16.20
2022-09-16T18:46:30.657Z,16.20
2022-09-16T18:48:59.442Z,16.20
2022-09-16T18:51:34.902Z,16.20
2022-09-16T18:54:04.230Z,16.10
2022-09-16T18:56:36.943Z,16.10
2022-09-16T18:59:24.046Z,16.10
2022-09-16T19:01:58.756Z,16.00
2022-09-16T19:04:30.347Z,16.00
2022-09-16T19:07:05.761Z,16.00
2022-09-16T19:09:34.542Z,15.90
2022-09-16T19:12:03.539Z,15.90
2022-09-16T19:14:31.801Z,15.90
2022-09-16T19:16:59.315Z,15.90
2022-09-16T19:19:27.446Z,16.00
2022-09-16T19:21:54.363Z,15.90
2022-09-16T19:24:23.748Z,15.90
2022-09-16T19:26:53.658Z,15.90
2022-09-16T19:29:21.174Z,15.90
2022-09-16T19:31:51.787Z,15.80
2022-09-16T19:34:19.835Z,15.80
2022-09-16T19:36:46.785Z,15.80
2022-09-16T19:39:14.394Z,15.80
2022-09-16T19:41:43.549Z,15.80
2022-09-16T19:46:40.402Z,15.70
2022-09-16T19:49:08.618Z,15.70
2022-09-16T19:51:35.955Z,15.70
2022-09-16T19:54:03.316Z,15.70
2022-09-16T19:56:33.067Z,15.70
2022-09-16T19:59:01.785Z,15.70
2022-09-16T20:01:33.752Z,15.70
2022-09-16T20:04:02.142Z,15.60
2022-09-16T20:06:40.646Z,15.60
2022-09-16T20:09:13.469Z,15.60
2022-09-16T20:11:42.815Z,15.60
2022-09-16T20:14:15.552Z,15.60
2022-09-16T20:16:43.062Z,15.50
2022-09-16T20:19:12.874Z,15.50
2022-09-16T20:21:40.305Z,15.50
2022-09-16T20:24:10.781Z,15.50
2022-09-16T20:26:37.501Z,15.50
2022-09-16T20:29:05.274Z,15.50
2022-09-16T20:31:34.468Z,15.50
2022-09-16T20:34:01.598Z,15.50
2022-09-16T20:36:32.617Z,15.50
2022-09-16T20:39:41.963Z,15.50
2022-09-16T20:42:08.684Z,15.40
2022-09-16T20:44:35.943Z,15.50
2022-09-16T20:47:06.170Z,15.40
2022-09-16T20:49:32.876Z,15.40
2022-09-16T20:52:00.619Z,15.40
2022-09-16T20:54:27.281Z,15.30
2022-09-16T20:56:54.137Z,15.40
2022-09-16T20:59:22.564Z,15.30
2022-09-16T21:01:50.054Z,15.30
2022-09-16T21:04:19.842Z,15.30
2022-09-16T21:06:47.792Z,15.30
2022-09-16T21:09:16.222Z,15.30
2022-09-16T21:11:46.306Z,15.30
2022-09-16T21:14:16.240Z,15.30
2022-09-16T21:16:45.431Z,15.20
2022-09-16T21:19:13.858Z,15.30
2022-09-16T21:21:48.434Z,15.20
2022-09-16T21:24:16.458Z,15.20
2022-09-16T21:26:46.227Z,15.20
2022-09-16T21:29:20.846Z,15.20
2022-09-16T21:31:49.645Z,15.10
2022-09-16T21:34:19.014Z,15.10
2022-09-16T21:36:46.054Z,15.10
2022-09-16T21:39:14.251Z,15.10
2022-09-16T21:41:42.993Z,15.10
2022-09-16T21:44:11.180Z,15.10
2022-09-16T21:46:43.259Z,15.10
2022-09-16T21:49:24.852Z,15.10
2022-09-16T21:51:53.797Z,15.10
2022-09-16T21:54:21.095Z,15.00
2022-09-16T21:56:48.975Z,15.00
2022-09-16T21:59:16.517Z,15.00
2022-09-16T22:01:45.878Z,15.00
2022-09-16T22:04:14.888Z,15.00
2022-09-16T22:06:42.198Z,14.90
2022-09-16T22:09:10.495Z,14.90
2022-09-16T22:11:40.815Z,14.90
2022-09-16T22:14:10.844Z,14.90
2022-09-16T22:16:38.841Z,14.90
2022-09-16T22:19:16.103Z,14.90
2022-09-16T22:21:44.581Z,14.90
2022-09-16T22:24:14.211Z,14.90
2022-09-16T22:26:41.961Z,14.90
2022-09-16T22:29:10.514Z,14.90
2022-09-16T22:31:39.495Z,14.90
2022-09-16T22:34:06.276Z,14.90
2022-09-16T22:36:36.175Z,14.90
2022-09-16T22:39:06.822Z,14.90
2022-09-16T22:41:34.324Z,14.90
2022-09-16T22:44:01.559Z,14.90
2022-09-16T22:46:38.584Z,14.80
2022-09-16T22:49:05.436Z,14.90
2022-09-16T22:51:32.320Z,14.90
2022-09-16T22:54:01.680Z,14.90
2022-09-16T22:56:33.346Z,14.90
2022-09-16T22:59:02.405Z,14.90
2022-09-16T23:01:35.545Z,14.90
2022-09-16T23:04:04.008Z,14.90
2022-09-16T23:06:32.338Z,14.90
2022-09-16T23:08:59.823Z,14.90
2022-09-16T23:11:30.041Z,14.90
2022-09-16T23:13:58.469Z,14.90
2022-09-16T23:16:28.016Z,14.90
2022-09-16T23:18:59.651Z,14.90
2022-09-16T23:21:28.153Z,14.90
2022-09-16T23:24:01.597Z,14.90
2022-09-16T23:26:31.286Z,14.90
2022-09-16T23:28:59.689Z,14.80
2022-09-16T23:31:29.996Z,14.90
2022-09-16T23:33:57.170Z,14.90
2022-09-16T23:36:25.827Z,14.90
2022-09-16T23:38:53.785Z,14.90
2022-09-16T23:41:23.376Z,14.90
2022-09-16T23:43:51.136Z,14.80
2022-09-16T23:46:20.931Z,14.90
2022-09-16T23:48:49.775Z,14.90
2022-09-16T23:51:16.607Z,14.80
2022-09-16T23:53:43.330Z,14.80
2022-09-16T23:56:12.132Z,14.80
2022-09-16T23:58:39.573Z,14.80
